Ava Foss — WDF5779 — position and weather

sailwx.info

Track history (hours):
 
Tides and Currents Weather Stations Pressure Air Temp Water Temp Dewpoint Dewpoint Depression Visibility Wind Speed Wind Dir Waves Ship Positions

Ava Foss

Owner: Foss Maritime Company, Seattle, WA. More information available from US FCC via Universal Licensing System and Coast Guard Vessel Documentation Center.

Last reported at 2016-Feb-05 22:12 UTC. Time now 2016-Feb-06 03:02 UTC.
Position N 33°55' W 118°27'.

Length 10 m; draft 2.5 m.

Type: Passenger vessel. MMSI: 367467120.

Date/timePositionNaut miles runAvg speedWind from/ knotsBaromVisibWave heightAir tempDewpointWater temp
2016-Feb-05 22:12N 33°55' W 118°27'0 0.4
2016-Feb-05 21:33N 33°55' W 118°27'5 2.5
2016-Feb-05 19:25N 33°51' W 118°24'0 0.4
2016-Feb-05 18:26N 33°51' W 118°24'3 3.9
2016-Feb-05 17:33N 33°54' W 118°26'4 0.2
2016-Feb-05 00:05N 33°51' W 118°24'0 0.0
2016-Feb-04 23:31N 33°51' W 118°24'5 4.7
2016-Feb-04 22:32N 33°54' W 118°27'5 4.7
2016-Feb-04 21:33N 33°51' W 118°24'0 0.0
2016-Feb-04 20:31N 33°51' W 118°24'5 4.8
2016-Feb-04 19:30N 33°54' W 118°27'3 2.6
2016-Feb-04 18:31N 33°52' W 118°27'3 2.9
2016-Feb-04 17:31N 33°51' W 118°24'0 0.1
2016-Feb-04 15:29N 33°50' W 118°24'1 0.8
2016-Feb-04 14:34N 33°51' W 118°24'4 0.8
2016-Feb-04 09:30N 33°54' W 118°27'2 0.1
2016-Feb-03 22:13N 33°53' W 118°27'2 3.4
2016-Feb-03 21:33N 33°51' W 118°25'4 3.7
2016-Feb-03 20:34N 33°54' W 118°27'5 3.8
2016-Feb-03 19:17N 33°51' W 118°24'5 6.3
2016-Feb-03 18:31N 33°54' W 118°27'5 3.7
2016-Feb-03 17:13N 33°51' W 118°24'5 2.9
2016-Feb-03 15:30N 33°54' W 118°27'1 0.4
2016-Feb-03 12:16N 33°54' W 118°26'1 0.2
2016-Feb-03 05:21N 33°54' W 118°27'3 0.5
2016-Feb-03 00:10N 33°52' W 118°25'3 2.5
2016-Feb-02 23:06N 33°54' W 118°27'5 7.2
2016-Feb-02 22:26N 33°51' W 118°24'1 1.4
2016-Feb-02 21:26N 33°51' W 118°25'1 1.5
2016-Feb-02 20:31N 33°51' W 118°24'5 4.7
2016-Feb-02 19:28N 33°52' W 118°29'5 0.5
2016-Feb-02 10:08N 33°51' W 118°24'0 0.0
2016-Feb-02 05:24N 33°51' W 118°24'0 0.2
2016-Feb-02 04:04N 33°51' W 118°24'0 0.0
2016-Feb-02 01:19N 33°51' W 118°24'0 0.0
2016-Feb-01 15:31N 33°51' W 118°24'0 0.0
2016-Feb-01 14:31N 33°51' W 118°24'0 0.0
2016-Feb-01 13:31N 33°51' W 118°24'0 0.0
2016-Feb-01 12:31N 33°51' W 118°24'0 0.0
2016-Feb-01 11:19N 33°51' W 118°24'0 0.0
2016-Feb-01 10:25N 33°51' W 118°24'0 0.0
2016-Feb-01 09:31N 33°51' W 118°24'0 0.0
2016-Feb-01 07:31N 33°51' W 118°24'0 0.0
2016-Feb-01 06:31N 33°51' W 118°24'0 0.0
2016-Feb-01 05:31N 33°51' W 118°24'0 0.0
2016-Feb-01 04:31N 33°51' W 118°24'3 0.1
2016-Jan-30 03:13N 33°53' W 118°26'2 0.2
2016-Jan-29 18:25N 33°54' W 118°27'1 1.1
2016-Jan-29 17:15N 33°53' W 118°26'1 0.5
2016-Jan-29 14:28N 33°52' W 118°26'2 0.4
2016-Jan-29 08:16N 33°54' W 118°27'0 0.1
2016-Jan-29 05:33N 33°54' W 118°27'3 0.2
2016-Jan-28 18:25N 33°52' W 118°26'3 0.9
2016-Jan-28 15:21N 33°54' W 118°27'4 0.2
2016-Jan-27 17:18N 33°51' W 118°24'5 4.2
2016-Jan-27 16:12N 33°54' W 118°27'0 0.0
2016-Jan-27 03:23N 33°54' W 118°27'  
Track history (hours):
 
Tides and Currents Weather Stations Pressure Air Temp Water Temp Dewpoint Dewpoint Depression Visibility Wind Speed Wind Dir Waves Ship Positions

Ava Foss

Owner: Foss Maritime Company, Seattle, WA. More information available from US FCC via Universal Licensing System and Coast Guard Vessel Documentation Center.

Last reported at 2016-Feb-05 22:12 UTC. Time now 2016-Feb-06 03:02 UTC.
Position N 33°55' W 118°27'.

Length 10 m; draft 2.5 m.

Type: Passenger vessel. MMSI: 367467120.

Date/timePositionNaut miles runAvg speedWind from/ knotsBaromVisibWave heightAir tempDewpointWater temp
2016-Feb-05 22:12N 33°55' W 118°27'0 0.4
2016-Feb-05 21:33N 33°55' W 118°27'5 2.5
2016-Feb-05 19:25N 33°51' W 118°24'0 0.4
2016-Feb-05 18:26N 33°51' W 118°24'3 3.9
2016-Feb-05 17:33N 33°54' W 118°26'4 0.2
2016-Feb-05 00:05N 33°51' W 118°24'0 0.0
2016-Feb-04 23:31N 33°51' W 118°24'5 4.7
2016-Feb-04 22:32N 33°54' W 118°27'5 4.7
2016-Feb-04 21:33N 33°51' W 118°24'0 0.0
2016-Feb-04 20:31N 33°51' W 118°24'5 4.8
2016-Feb-04 19:30N 33°54' W 118°27'3 2.6
2016-Feb-04 18:31N 33°52' W 118°27'3 2.9
2016-Feb-04 17:31N 33°51' W 118°24'0 0.1
2016-Feb-04 15:29N 33°50' W 118°24'1 0.8
2016-Feb-04 14:34N 33°51' W 118°24'4 0.8
2016-Feb-04 09:30N 33°54' W 118°27'2 0.1
2016-Feb-03 22:13N 33°53' W 118°27'2 3.4
2016-Feb-03 21:33N 33°51' W 118°25'4 3.7
2016-Feb-03 20:34N 33°54' W 118°27'5 3.8
2016-Feb-03 19:17N 33°51' W 118°24'5 6.3
2016-Feb-03 18:31N 33°54' W 118°27'5 3.7
2016-Feb-03 17:13N 33°51' W 118°24'5 2.9
2016-Feb-03 15:30N 33°54' W 118°27'1 0.4
2016-Feb-03 12:16N 33°54' W 118°26'1 0.2
2016-Feb-03 05:21N 33°54' W 118°27'3 0.5
2016-Feb-03 00:10N 33°52' W 118°25'3 2.5
2016-Feb-02 23:06N 33°54' W 118°27'5 7.2
2016-Feb-02 22:26N 33°51' W 118°24'1 1.4
2016-Feb-02 21:26N 33°51' W 118°25'1 1.5
2016-Feb-02 20:31N 33°51' W 118°24'5 4.7
2016-Feb-02 19:28N 33°52' W 118°29'5 0.5
2016-Feb-02 10:08N 33°51' W 118°24'0 0.0
2016-Feb-02 05:24N 33°51' W 118°24'0 0.2
2016-Feb-02 04:04N 33°51' W 118°24'0 0.0
2016-Feb-02 01:19N 33°51' W 118°24'0 0.0
2016-Feb-01 15:31N 33°51' W 118°24'0 0.0
2016-Feb-01 14:31N 33°51' W 118°24'0 0.0
2016-Feb-01 13:31N 33°51' W 118°24'0 0.0
2016-Feb-01 12:31N 33°51' W 118°24'0 0.0
2016-Feb-01 11:19N 33°51' W 118°24'0 0.0
2016-Feb-01 10:25N 33°51' W 118°24'0 0.0
2016-Feb-01 09:31N 33°51' W 118°24'0 0.0
2016-Feb-01 07:31N 33°51' W 118°24'0 0.0
2016-Feb-01 06:31N 33°51' W 118°24'0 0.0
2016-Feb-01 05:31N 33°51' W 118°24'0 0.0
2016-Feb-01 04:31N 33°51' W 118°24'3 0.1
2016-Jan-30 03:13N 33°53' W 118°26'2 0.2
2016-Jan-29 18:25N 33°54' W 118°27'1 1.1
2016-Jan-29 17:15N 33°53' W 118°26'1 0.5
2016-Jan-29 14:28N 33°52' W 118°26'2 0.4
2016-Jan-29 08:16N 33°54' W 118°27'0 0.1
2016-Jan-29 05:33N 33°54' W 118°27'3 0.2
2016-Jan-28 18:25N 33°52' W 118°26'3 0.9
2016-Jan-28 15:21N 33°54' W 118°27'4 0.2
2016-Jan-27 17:18N 33°51' W 118°24'5 4.2
2016-Jan-27 16:12N 33°54' W 118°27'0 0.0
2016-Jan-27 03:23N 33°54' W 118°27'  

Dump ship's entire track history